Coolin, Idaho
Current Conditions -  °F | °C
As of 7:35 PM on Wednesday 22 Oct 2014 (Local Time) from KSZT Reporting Station
Drizzle Drizzle  
Wind Chill: 46°   Ceiling: 5500
Heat Index: 46°   Visibility: 10mi
Dew Point: 46°   Wind: 0mph
Humidity: 100%   Direction: NA
Pressure: 29.81"   Gusts: NA
Location:  48.48°N, 116.85°W
Report Text: KSZT 230235Z AUTO 00000KT 10SM DZ BKN055 OVC070 08/08 A2981 RMK AO2
Loading
Personal Weather Stations






























Interactive Weather Map
Tropical Storm Tracking
New forecast layout! Learn more

10-Day Weather Forecast

Advertisements
Track Severe Weather on mobile